createdAt,value
2023-04-06T00:01:33.649Z,44.47
2023-04-06T00:04:01.372Z,44.38
2023-04-06T00:06:28.785Z,44.79
2023-04-06T00:08:56.895Z,44.82
2023-04-06T00:11:24.533Z,44.12
2023-04-06T00:13:51.927Z,43.26
2023-04-06T00:16:19.473Z,44.06
2023-04-06T00:18:47.156Z,44.12
2023-04-06T00:21:15.561Z,44.43
2023-04-06T00:23:43.007Z,43.90
2023-04-06T00:26:11.660Z,43.77
2023-04-06T00:28:40.293Z,43.50
2023-04-06T00:31:08.016Z,43.02
2023-04-06T00:33:35.823Z,43.50
2023-04-06T00:36:03.329Z,44.26
2023-04-06T00:38:30.819Z,43.72
2023-04-06T00:40:58.494Z,44.08
2023-04-06T00:43:25.998Z,44.01
2023-04-06T00:45:53.782Z,44.00
2023-04-06T00:48:22.338Z,43.95
2023-04-06T00:50:49.740Z,44.31
2023-04-06T00:53:17.283Z,44.45
2023-04-06T00:55:45.101Z,43.99
2023-04-06T00:58:12.530Z,43.98
2023-04-06T01:00:40.609Z,44.63
2023-04-06T01:03:10.278Z,44.55
2023-04-06T01:05:41.495Z,44.00
2023-04-06T01:08:10.520Z,43.47
2023-04-06T01:10:37.970Z,43.73
2023-04-06T01:13:05.978Z,43.72
2023-04-06T01:15:40.106Z,43.61
2023-04-06T01:18:11.312Z,43.57
2023-04-06T01:20:40.610Z,43.06
2023-04-06T01:23:08.681Z,43.23
2023-04-06T01:25:36.864Z,43.16
2023-04-06T01:28:04.995Z,43.03
2023-04-06T01:30:33.589Z,43.31
2023-04-06T01:33:01.332Z,42.98
2023-04-06T01:35:31.165Z,42.89
2023-04-06T01:37:58.976Z,42.84
2023-04-06T01:40:26.644Z,43.22
2023-04-06T01:42:54.309Z,43.12
2023-04-06T01:45:22.733Z,43.49
2023-04-06T01:47:51.756Z,43.36
2023-04-06T01:50:21.899Z,43.64
2023-04-06T01:52:49.420Z,43.77
2023-04-06T01:55:16.931Z,43.38
2023-04-06T01:57:46.384Z,43.07
2023-04-06T02:00:15.402Z,43.43
2023-04-06T02:02:44.495Z,44.04
2023-04-06T02:05:12.522Z,44.31
2023-04-06T02:07:40.273Z,44.17
2023-04-06T02:10:13.014Z,43.92
2023-04-06T02:12:40.525Z,44.06
2023-04-06T02:15:09.137Z,43.59
2023-04-06T02:17:36.745Z,43.58
2023-04-06T02:20:04.313Z,43.96
2023-04-06T02:22:31.925Z,43.57
2023-04-06T02:25:00.306Z,43.85
2023-04-06T02:27:27.925Z,44.32
2023-04-06T02:29:55.618Z,44.43
2023-04-06T02:32:23.138Z,45.41
2023-04-06T02:34:50.624Z,44.31
2023-04-06T02:37:18.908Z,44.75
2023-04-06T02:39:46.414Z,44.20
2023-04-06T02:42:13.807Z,44.67
2023-04-06T02:44:41.585Z,43.93
2023-04-06T02:47:09.311Z,43.69
2023-04-06T02:49:37.778Z,44.19
2023-04-06T02:52:05.420Z,43.85
2023-04-06T02:54:33.265Z,44.40
2023-04-06T02:57:00.834Z,44.66
2023-04-06T02:59:30.807Z,44.28
2023-04-06T03:01:58.627Z,43.69
2023-04-06T03:04:26.574Z,45.22
2023-04-06T03:06:55.334Z,44.89
2023-04-06T03:09:23.766Z,45.03
2023-04-06T03:11:51.500Z,45.75
2023-04-06T03:14:22.630Z,44.91
2023-04-06T03:16:50.564Z,44.89
2023-04-06T03:19:18.894Z,44.65
2023-04-06T03:21:46.707Z,45.15
2023-04-06T03:24:14.889Z,45.54
2023-04-06T03:26:43.299Z,43.86
2023-04-06T03:29:10.813Z,44.53
2023-04-06T03:31:38.439Z,44.60
2023-04-06T03:34:06.394Z,44.38
2023-04-06T03:36:35.378Z,43.96
2023-04-06T03:39:03.896Z,44.22
2023-04-06T03:41:32.345Z,43.86
2023-04-06T03:44:00.427Z,44.99
2023-04-06T03:46:27.912Z,44.87
2023-04-06T03:48:55.947Z,44.69
2023-04-06T03:51:23.519Z,44.79
2023-04-06T03:53:50.904Z,44.48
2023-04-06T03:56:18.657Z,44.32
2023-04-06T03:58:46.284Z,44.74
2023-04-06T04:01:13.963Z,44.46
2023-04-06T04:03:41.706Z,44.35
2023-04-06T04:06:09.161Z,44.89
2023-04-06T04:08:36.693Z,44.78
2023-04-06T04:11:04.355Z,44.38
2023-04-06T04:13:32.032Z,44.64
2023-04-06T04:15:59.658Z,44.58
2023-04-06T04:18:27.506Z,44.83
2023-04-06T04:20:54.883Z,45.23
2023-04-06T04:23:22.927Z,44.97
2023-04-06T04:25:50.683Z,44.54
2023-04-06T04:28:18.187Z,44.66
2023-04-06T04:30:46.685Z,44.49
2023-04-06T04:33:14.448Z,44.93
2023-04-06T04:35:42.106Z,44.60
2023-04-06T04:38:10.366Z,45.11
2023-04-06T04:40:38.622Z,45.80
2023-04-06T04:43:06.872Z,46.35
2023-04-06T04:45:34.654Z,45.44
2023-04-06T04:48:03.511Z,45.57
2023-04-06T04:50:32.172Z,44.73
2023-04-06T04:52:59.759Z,47.31
2023-04-06T04:55:30.191Z,48.88
2023-04-06T04:57:58.242Z,48.29
2023-04-06T05:00:26.785Z,49.84
2023-04-06T05:02:56.367Z,48.70
2023-04-06T05:05:24.108Z,49.51
2023-04-06T05:07:51.681Z,48.51
2023-04-06T05:10:19.921Z,48.73
2023-04-06T05:12:48.089Z,48.99
2023-04-06T05:15:16.225Z,49.98
2023-04-06T05:17:43.965Z,51.43
2023-04-06T05:20:12.135Z,51.07
2023-04-06T05:22:42.402Z,52.48
2023-04-06T05:25:10.822Z,50.81
2023-04-06T05:27:38.930Z,48.71
2023-04-06T05:30:07.809Z,50.15
2023-04-06T05:32:39.007Z,49.72
2023-04-06T05:35:06.738Z,48.90
2023-04-06T05:37:34.527Z,50.01
2023-04-06T05:40:03.750Z,48.28
2023-04-06T05:42:39.070Z,50.35
2023-04-06T05:45:07.716Z,49.72
2023-04-06T05:47:35.913Z,49.70
2023-04-06T05:50:03.768Z,50.08
2023-04-06T05:52:31.821Z,51.75
2023-04-06T05:54:59.885Z,49.05
2023-04-06T05:57:27.715Z,49.43
2023-04-06T05:59:56.303Z,48.87
2023-04-06T06:02:24.914Z,48.90
2023-04-06T06:04:52.922Z,48.61
2023-04-06T06:07:20.772Z,49.76
2023-04-06T06:09:48.583Z,51.25
2023-04-06T06:12:16.705Z,52.00
2023-04-06T06:14:44.356Z,49.49
2023-04-06T06:17:11.815Z,47.24
2023-04-06T06:19:39.725Z,47.34
2023-04-06T06:22:07.459Z,46.70
2023-04-06T06:24:36.058Z,46.52
2023-04-06T06:27:03.923Z,46.67
2023-04-06T06:29:32.199Z,46.59
2023-04-06T06:31:59.829Z,44.18
2023-04-06T06:34:27.752Z,43.36
2023-04-06T06:36:56.581Z,43.78
2023-04-06T06:39:24.297Z,43.93
2023-04-06T06:41:52.150Z,43.52
2023-04-06T06:44:22.677Z,43.67
2023-04-06T06:46:50.280Z,45.27
2023-04-06T06:49:19.560Z,45.92
2023-04-06T06:51:47.427Z,45.01
2023-04-06T06:54:14.816Z,46.64
2023-04-06T06:56:42.537Z,46.26
2023-04-06T06:59:10.099Z,46.22
2023-04-06T07:01:38.492Z,44.56
2023-04-06T07:04:06.504Z,44.78
2023-04-06T07:06:33.947Z,45.11
2023-04-06T07:09:01.387Z,45.79
2023-04-06T07:11:29.083Z,43.48
2023-04-06T07:13:56.482Z,45.06
2023-04-06T07:16:24.024Z,44.55
2023-04-06T07:18:51.981Z,44.51
2023-04-06T07:21:19.605Z,43.92
2023-04-06T07:23:49.078Z,43.32
2023-04-06T07:26:17.469Z,42.53
2023-04-06T07:28:44.912Z,42.27
2023-04-06T07:31:12.843Z,43.34
2023-04-06T07:33:41.015Z,43.47
2023-04-06T07:36:08.831Z,42.74
2023-04-06T07:38:36.346Z,41.53
2023-04-06T07:41:05.042Z,40.98
2023-04-06T07:43:33.307Z,42.37
2023-04-06T07:46:01.558Z,42.51
2023-04-06T07:48:29.279Z,43.46
2023-04-06T07:51:03.671Z,44.57
2023-04-06T07:53:31.789Z,42.43
2023-04-06T07:55:59.644Z,41.31
2023-04-06T07:58:27.113Z,41.36
2023-04-06T08:00:55.646Z,41.55
2023-04-06T08:03:26.800Z,41.74
2023-04-06T08:05:54.335Z,40.62
2023-04-06T08:08:22.328Z,39.72
2023-04-06T08:10:49.970Z,39.64
2023-04-06T08:13:17.393Z,40.49
2023-04-06T08:15:44.951Z,40.79
2023-04-06T08:18:12.668Z,40.70
2023-04-06T08:20:40.650Z,40.97
2023-04-06T08:23:10.258Z,40.55
2023-04-06T08:25:38.078Z,40.12
2023-04-06T08:28:05.663Z,41.22
2023-04-06T08:30:33.326Z,41.56
2023-04-06T08:33:01.265Z,40.16
2023-04-06T08:35:28.906Z,40.21
2023-04-06T08:37:56.329Z,38.89
2023-04-06T08:40:23.967Z,38.43
2023-04-06T08:42:53.566Z,40.21
2023-04-06T08:45:22.321Z,39.34
2023-04-06T08:47:53.491Z,40.45
2023-04-06T08:50:21.030Z,38.27
2023-04-06T08:52:49.217Z,38.16
2023-04-06T08:55:17.281Z,37.88
2023-04-06T08:57:44.655Z,39.99
2023-04-06T09:00:12.542Z,38.43
2023-04-06T09:02:42.115Z,38.27
2023-04-06T09:05:10.770Z,36.82
2023-04-06T09:07:38.249Z,37.07
2023-04-06T09:10:06.765Z,36.32
2023-04-06T09:12:34.210Z,35.89
2023-04-06T09:15:01.768Z,36.81
2023-04-06T09:17:31.012Z,37.81
2023-04-06T09:19:58.474Z,37.31
2023-04-06T09:22:26.772Z,35.65
2023-04-06T09:24:54.709Z,36.75
2023-04-06T09:27:34.981Z,35.71
2023-04-06T09:30:06.947Z,34.90
2023-04-06T09:32:45.700Z,33.52
2023-04-06T09:35:13.562Z,32.75
2023-04-06T09:37:40.920Z,32.70
2023-04-06T09:40:08.796Z,34.63
2023-04-06T09:42:36.439Z,34.70
2023-04-06T09:45:04.167Z,32.50
2023-04-06T09:47:31.902Z,33.84
2023-04-06T09:50:00.246Z,34.52
2023-04-06T09:52:49.852Z,33.18
2023-04-06T09:55:50.025Z,32.71
2023-04-06T09:58:20.209Z,32.65
2023-04-06T10:01:04.345Z,34.34
2023-04-06T10:03:39.830Z,32.07
2023-04-06T10:06:12.163Z,31.98
2023-04-06T10:08:41.507Z,32.77
2023-04-06T10:11:10.035Z,32.94
2023-04-06T10:13:37.581Z,31.09
2023-04-06T10:16:05.443Z,31.38
2023-04-06T10:18:32.990Z,30.33
2023-04-06T10:21:07.607Z,28.15
2023-04-06T10:23:55.080Z,29.65
2023-04-06T10:26:22.550Z,29.59
2023-04-06T10:28:50.858Z,30.62
2023-04-06T10:31:28.650Z,30.65
2023-04-06T10:33:57.738Z,31.83
2023-04-06T10:36:29.253Z,31.20
2023-04-06T10:38:59.003Z,31.32
2023-04-06T10:41:46.727Z,30.37
2023-04-06T10:44:24.559Z,30.50
2023-04-06T10:47:01.351Z,32.14
2023-04-06T10:49:29.048Z,31.87
2023-04-06T10:51:56.898Z,31.38
2023-04-06T10:54:26.095Z,31.42
2023-04-06T10:56:53.745Z,31.28
2023-04-06T10:59:22.093Z,31.88
2023-04-06T11:01:49.651Z,32.17
2023-04-06T11:04:18.893Z,32.33
2023-04-06T11:06:49.849Z,32.45
2023-04-06T11:09:30.776Z,32.44
2023-04-06T11:11:58.302Z,31.72
2023-04-06T11:14:27.605Z,32.45
2023-04-06T11:16:55.969Z,32.84
2023-04-06T11:19:23.786Z,33.44
2023-04-06T11:21:51.644Z,33.82
2023-04-06T11:24:22.806Z,32.89
2023-04-06T11:26:53.447Z,33.70
2023-04-06T11:29:22.324Z,34.11
2023-04-06T11:31:51.123Z,33.70
2023-04-06T11:34:28.881Z,33.12
2023-04-06T11:37:00.976Z,32.93
2023-04-06T11:39:29.312Z,33.31
2023-04-06T11:42:01.080Z,33.15
2023-04-06T11:44:47.034Z,33.62
2023-04-06T11:47:14.812Z,32.55
2023-04-06T11:49:43.331Z,31.98
2023-04-06T11:52:21.409Z,30.66
2023-04-06T11:54:49.857Z,31.46
2023-04-06T11:57:17.765Z,30.19
2023-04-06T11:59:45.495Z,30.74
2023-04-06T12:02:13.156Z,30.15
2023-04-06T12:04:40.878Z,30.69
2023-04-06T12:07:08.228Z,29.72
2023-04-06T12:09:35.754Z,29.99
2023-04-06T12:12:04.086Z,30.67
2023-04-06T12:14:31.760Z,30.79
2023-04-06T12:16:59.367Z,32.20
2023-04-06T12:19:27.181Z,31.83
2023-04-06T12:21:55.484Z,31.58
2023-04-06T12:24:22.957Z,31.83
2023-04-06T12:26:54.004Z,31.80
2023-04-06T12:29:27.094Z,31.76
2023-04-06T12:31:54.805Z,31.67
2023-04-06T12:34:22.180Z,31.13
2023-04-06T12:36:49.614Z,30.95
2023-04-06T12:39:18.826Z,32.50
2023-04-06T12:41:47.846Z,31.77
2023-04-06T12:44:15.236Z,32.30
2023-04-06T12:46:44.318Z,31.65
2023-04-06T12:49:12.110Z,31.53
2023-04-06T12:51:39.494Z,31.73
2023-04-06T12:54:07.552Z,30.37
2023-04-06T12:56:34.965Z,31.16
2023-04-06T12:59:02.452Z,31.12
2023-04-06T13:01:30.204Z,30.42
2023-04-06T13:03:58.830Z,31.65
2023-04-06T13:06:29.527Z,32.14
2023-04-06T13:08:57.213Z,31.42
2023-04-06T13:11:27.869Z,31.53
2023-04-06T13:13:56.273Z,31.33
2023-04-06T13:16:23.999Z,31.50
2023-04-06T13:18:52.096Z,31.41
2023-04-06T13:21:21.304Z,30.49
2023-04-06T13:23:48.977Z,30.26
2023-04-06T13:26:17.652Z,29.93
2023-04-06T13:28:45.127Z,30.14
2023-04-06T13:31:12.914Z,30.09
2023-04-06T13:33:41.887Z,30.43
2023-04-06T13:36:09.502Z,31.15
2023-04-06T13:38:39.839Z,30.37
2023-04-06T13:41:07.297Z,30.49
2023-04-06T13:43:34.723Z,30.96
2023-04-06T13:46:02.463Z,31.40
2023-04-06T13:48:29.950Z,31.41
2023-04-06T13:50:57.355Z,31.42
2023-04-06T13:53:25.277Z,31.64
2023-04-06T13:55:56.149Z,31.40
2023-04-06T13:58:24.041Z,32.96
2023-04-06T14:00:52.012Z,32.80
2023-04-06T14:03:20.080Z,32.23
2023-04-06T14:05:47.491Z,33.54
2023-04-06T14:08:14.896Z,33.75
2023-04-06T14:10:43.258Z,32.95
2023-04-06T14:13:11.502Z,33.54
2023-04-06T14:15:39.086Z,33.48
2023-04-06T14:18:07.076Z,35.36
2023-04-06T14:20:34.540Z,36.51
2023-04-06T14:23:02.852Z,35.85
2023-04-06T14:25:32.954Z,35.93
2023-04-06T14:28:00.772Z,36.74
2023-04-06T14:30:29.027Z,35.31
2023-04-06T14:32:59.863Z,35.70
2023-04-06T14:35:29.131Z,34.54
2023-04-06T14:37:59.000Z,34.58
2023-04-06T14:40:26.433Z,35.82
2023-04-06T14:42:53.807Z,35.93
2023-04-06T14:45:22.829Z,35.97
2023-04-06T14:47:50.342Z,35.03
2023-04-06T14:50:17.723Z,35.96
2023-04-06T14:52:47.237Z,35.67
2023-04-06T14:55:15.038Z,36.66
2023-04-06T14:57:42.395Z,38.13
2023-04-06T15:00:11.067Z,37.43
2023-04-06T15:02:39.372Z,38.77
2023-04-06T15:05:07.291Z,37.71
2023-04-06T15:07:34.977Z,37.54
2023-04-06T15:10:02.420Z,36.50
2023-04-06T15:12:30.797Z,38.26
2023-04-06T15:14:58.497Z,38.43
2023-04-06T15:17:27.491Z,39.29
2023-04-06T15:19:55.365Z,39.86
2023-04-06T15:22:23.037Z,41.62
2023-04-06T15:24:50.526Z,41.70
2023-04-06T15:27:17.864Z,41.13
2023-04-06T15:29:45.718Z,41.20
2023-04-06T15:32:13.411Z,40.62
2023-04-06T15:34:40.843Z,41.73
2023-04-06T15:37:09.245Z,40.82
2023-04-06T15:39:37.794Z,41.43
2023-04-06T15:42:05.263Z,41.25
2023-04-06T15:44:32.882Z,41.12
2023-04-06T15:47:00.332Z,39.85
2023-04-06T15:49:27.742Z,41.26
2023-04-06T15:51:55.406Z,41.25
2023-04-06T15:54:22.766Z,40.34
2023-04-06T15:56:50.932Z,41.25
2023-04-06T15:59:18.526Z,42.77
2023-04-06T16:01:46.785Z,43.57
2023-04-06T16:04:14.928Z,44.10
2023-04-06T16:06:42.468Z,45.82
2023-04-06T16:09:09.838Z,44.85
2023-04-06T16:11:37.567Z,45.07
2023-04-06T16:14:05.245Z,45.53
2023-04-06T16:16:32.732Z,45.31
2023-04-06T16:19:00.476Z,45.96
2023-04-06T16:21:28.777Z,46.61
2023-04-06T16:23:58.021Z,46.79
2023-04-06T16:26:27.218Z,46.81
2023-04-06T16:28:54.706Z,48.16
2023-04-06T16:31:23.606Z,49.31
2023-04-06T16:33:56.290Z,48.97
2023-04-06T16:36:27.902Z,52.05
2023-04-06T16:38:59.065Z,55.66
2023-04-06T16:41:27.548Z,56.64
2023-04-06T16:43:58.029Z,57.70
2023-04-06T16:46:35.960Z,56.49
2023-04-06T16:49:04.188Z,56.51
2023-04-06T16:51:32.427Z,55.54
2023-04-06T16:53:59.818Z,58.19
2023-04-06T16:56:27.573Z,60.99
2023-04-06T16:58:55.513Z,59.85
2023-04-06T17:01:24.162Z,62.77
2023-04-06T17:03:51.681Z,64.58
2023-04-06T17:06:19.593Z,64.87
2023-04-06T17:08:47.401Z,65.96
2023-04-06T17:11:18.696Z,67.54
2023-04-06T17:13:51.096Z,68.33
2023-04-06T17:16:19.473Z,66.97
2023-04-06T17:18:46.901Z,67.14
2023-04-06T17:21:14.655Z,67.06
2023-04-06T17:23:42.061Z,69.38
2023-04-06T17:26:09.418Z,69.95
2023-04-06T17:28:37.042Z,70.01
2023-04-06T17:31:08.069Z,70.71
2023-04-06T17:33:36.370Z,73.25
2023-04-06T17:36:04.710Z,71.09
2023-04-06T17:38:32.144Z,71.80
2023-04-06T17:41:01.282Z,74.48
2023-04-06T17:43:28.930Z,75.36
2023-04-06T17:45:56.276Z,76.34
2023-04-06T17:48:23.664Z,73.34
2023-04-06T17:50:51.306Z,75.82
2023-04-06T17:53:20.361Z,75.00
2023-04-06T17:55:47.801Z,75.94
2023-04-06T17:58:15.671Z,77.64
2023-04-06T18:00:43.029Z,78.21
2023-04-06T18:03:10.668Z,78.09
2023-04-06T18:05:38.505Z,76.79
2023-04-06T18:08:05.974Z,78.45
2023-04-06T18:10:37.261Z,79.01
2023-04-06T18:13:04.613Z,78.47
2023-04-06T18:15:32.062Z,78.27
2023-04-06T18:17:59.697Z,79.55
2023-04-06T18:20:27.152Z,78.29
2023-04-06T18:22:55.743Z,78.69
2023-04-06T18:25:25.316Z,77.73
2023-04-06T18:27:52.696Z,75.77
2023-04-06T18:30:20.529Z,75.76
2023-04-06T18:32:48.792Z,76.33
2023-04-06T18:35:16.428Z,78.08
2023-04-06T18:37:43.758Z,79.18
2023-04-06T18:40:33.023Z,79.90
2023-04-06T18:43:00.643Z,78.20
2023-04-06T18:45:28.368Z,77.93
2023-04-06T18:47:56.750Z,76.14
2023-04-06T18:50:24.178Z,76.03
2023-04-06T18:52:52.186Z,77.76
2023-04-06T18:55:19.777Z,76.22
2023-04-06T18:57:47.205Z,74.53
2023-04-06T19:00:15.570Z,75.08
2023-04-06T19:02:43.870Z,76.65
2023-04-06T19:05:12.157Z,75.00
2023-04-06T19:07:39.985Z,72.96
2023-04-06T19:10:08.369Z,74.68
2023-04-06T19:12:37.637Z,71.89
2023-04-06T19:15:07.535Z,75.22
2023-04-06T19:17:35.395Z,73.89
2023-04-06T19:20:02.923Z,72.09
2023-04-06T19:22:31.116Z,74.16
2023-04-06T19:24:58.488Z,73.07
2023-04-06T19:27:26.013Z,72.41
2023-04-06T19:29:53.644Z,74.11
2023-04-06T19:32:21.078Z,72.49
2023-04-06T19:34:48.817Z,72.46
2023-04-06T19:37:16.405Z,74.61
2023-04-06T19:39:47.645Z,76.77
2023-04-06T19:42:21.629Z,76.71
2023-04-06T19:44:49.296Z,75.48
2023-04-06T19:47:16.683Z,75.97
2023-04-06T19:49:44.076Z,78.31
2023-04-06T19:52:11.793Z,75.74
2023-04-06T19:54:39.668Z,76.59
2023-04-06T19:57:07.165Z,74.37
2023-04-06T19:59:34.749Z,76.22
2023-04-06T20:02:02.226Z,76.42
2023-04-06T20:04:30.091Z,76.09
2023-04-06T20:06:57.620Z,77.24
2023-04-06T20:09:25.252Z,74.90
2023-04-06T20:11:54.113Z,74.51
2023-04-06T20:14:22.219Z,73.66
2023-04-06T20:16:50.854Z,73.81
2023-04-06T20:19:19.248Z,74.02
2023-04-06T20:21:48.212Z,73.83
2023-04-06T20:24:15.748Z,73.15
2023-04-06T20:26:43.380Z,74.02
2023-04-06T20:29:10.747Z,72.33
2023-04-06T20:31:38.134Z,73.07
2023-04-06T20:34:05.905Z,73.33
2023-04-06T20:36:34.251Z,73.91
2023-04-06T20:39:01.591Z,74.79
2023-04-06T20:41:29.303Z,74.20
2023-04-06T20:43:56.640Z,74.05
2023-04-06T20:46:25.150Z,73.37
2023-04-06T20:48:53.065Z,73.80
2023-04-06T20:51:21.266Z,74.99
2023-04-06T20:53:48.791Z,77.14
2023-04-06T20:56:16.511Z,76.95
2023-04-06T20:58:43.884Z,76.93
2023-04-06T21:01:14.946Z,78.88
2023-04-06T21:03:43.012Z,77.86
2023-04-06T21:06:10.852Z,77.00
2023-04-06T21:08:38.253Z,78.68
2023-04-06T21:11:06.320Z,80.13
2023-04-06T21:13:34.396Z,78.76
2023-04-06T21:16:02.166Z,78.18
2023-04-06T21:18:30.806Z,78.98
2023-04-06T21:20:58.217Z,76.04
2023-04-06T21:23:25.696Z,77.35
2023-04-06T21:25:56.873Z,76.47
2023-04-06T21:28:27.067Z,78.37
2023-04-06T21:30:54.721Z,74.40
2023-04-06T21:33:22.417Z,76.26
2023-04-06T21:35:49.833Z,75.11
2023-04-06T21:38:17.456Z,75.62
2023-04-06T21:40:44.811Z,77.12
2023-04-06T21:43:12.143Z,76.29
2023-04-06T21:45:40.306Z,73.07
2023-04-06T21:48:07.887Z,70.22
2023-04-06T21:50:39.543Z,73.32
2023-04-06T21:53:07.189Z,74.78
2023-04-06T21:55:34.554Z,75.58
2023-04-06T21:58:01.911Z,75.08
2023-04-06T22:00:29.562Z,73.53
2023-04-06T22:02:57.390Z,75.92
2023-04-06T22:05:24.930Z,75.62
2023-04-06T22:07:52.711Z,74.56
2023-04-06T22:10:20.451Z,75.30
2023-04-06T22:12:49.770Z,72.72
2023-04-06T22:15:17.137Z,72.80
2023-04-06T22:17:44.775Z,72.34
2023-04-06T22:20:12.273Z,71.59
2023-04-06T22:22:39.734Z,70.92
2023-04-06T22:25:07.725Z,74.46
2023-04-06T22:27:35.082Z,73.79
2023-04-06T22:30:03.313Z,73.17
2023-04-06T22:32:31.004Z,72.67
2023-04-06T22:34:58.430Z,73.75
2023-04-06T22:37:25.886Z,74.01
2023-04-06T22:39:53.533Z,72.82
2023-04-06T22:42:20.858Z,72.66
2023-04-06T22:44:48.221Z,72.53
2023-04-06T22:47:16.024Z,71.70
2023-04-06T22:49:43.474Z,73.86
2023-04-06T22:52:10.905Z,73.44
2023-04-06T22:54:38.972Z,73.63
2023-04-06T22:57:06.347Z,72.54
2023-04-06T22:59:33.725Z,69.49
2023-04-06T23:02:01.512Z,69.62
2023-04-06T23:04:28.982Z,70.22
2023-04-06T23:06:56.515Z,71.04
2023-04-06T23:09:24.319Z,71.92
2023-04-06T23:11:51.707Z,70.18
2023-04-06T23:14:19.049Z,70.40
2023-04-06T23:16:46.761Z,70.32
2023-04-06T23:19:14.145Z,72.00
2023-04-06T23:21:41.704Z,69.79
2023-04-06T23:24:09.433Z,69.43
2023-04-06T23:26:36.790Z,70.11
2023-04-06T23:29:04.140Z,69.92
2023-04-06T23:31:31.732Z,72.74
2023-04-06T23:33:59.081Z,68.37
2023-04-06T23:36:26.876Z,70.08
2023-04-06T23:38:54.669Z,69.37
2023-04-06T23:41:22.554Z,70.93
2023-04-06T23:43:49.969Z,69.64
2023-04-06T23:46:17.818Z,68.06
2023-04-06T23:48:45.328Z,67.05
2023-04-06T23:51:12.711Z,70.20
2023-04-06T23:53:41.141Z,68.41
2023-04-06T23:56:08.499Z,67.06
2023-04-06T23:58:35.910Z,65.53
